Airfield :
LOGIN :

Register | Disclaimer

   EN    FR    IT 

 










Legend :    VFR   Marginal VFR   IFR   Intensive IFR   Very Intensive IFR
Visi :
Ceiling :
>= 8 km
>= 3000ft
5 to 8 km
1000 to 3000 ft
1500m to 5 km
500 to 1000 ft
800 to 1500m
200 to 500 ft
< 800m
< 200 ft
Symbols :   Thunderstorms  Fog  Heavy snow  Heavy precipitations  Wind > 20 kt
SIGMETs :     Misc.  Thunderstorms  Icing  Turbulence  Mountain Waves  Volcanic Ashes






- Airport Elevation : 348 ft
- IATA code : LDV


LFRJ - Landivisiau

CURRENT METAR :
  • 201400Z AUTO 19023G37KT 160V220 9999 OVC024 12/09 Q0985 TEMPO 3000 -RA BECMG BKN014 OVC020

EXPIRED METARs :
  • 201330Z AUTO 20023G35KT 9999 SCT023 OVC029 12/09 Q0986 TEMPO 3000 -RA BECMG BKN014 OVC020
  • 201300Z AUTO 20021KT 9999 BKN017 BKN024 OVC046 11/09 Q0987 TEMPO 19020G35KT 3000 -RA BECMG BKN014 OVC020
  • 201230Z AUTO 19019KT 9999 BKN015 OVC021 11/09 Q0987 TEMPO 19020G35KT 3000 -RA BECMG BKN014 OVC020
  • 201200Z AUTO 20016KT 9999 -RA OVC013/// ///TCU 10/09 Q0988 TEMPO 19020G35KT 3000 -RA BECMG BKN014 OVC020
  • 201130Z AUTO 19019KT 9999 -RA OVC011 10/09 Q0989 TEMPO 19020G35KT 3000 -RA

TAF TAF LFRJ
Valid from the 20 at 12:00 until the 20 at 21:00 UTC


201100Z 2012/2021 19018KT 9999 BKN014 OVC020
TEMPO 2012/2017 19020G35KT 3000 -RA
BECMG 2017/2020 26020G35KT BKN008



MET'MAP, your aeronautical weather chart ! - Copyright ORBIFLY December 2007 - Disclaimer

ORBIFLY MET'MAP TEAM :

Programming & Development : Alexandra Zaïnal
Concept & original design : Baudouin d'Aumeries
Assistance for programming : Marc-Olivier Méhu
Technical & hardware support : Manuel Goepfert

Contact : metmap@orbifly.com




SOURCES & CREDITS :

   NOAA